Valle Universitario, Puerto Rico
Current Conditions -  °F | °C
As of 3:56 PM on Monday 26 Jan 2015 (Local Time) from TJSJ Reporting Station
Scattered Clouds Scattered Clouds  
Wind Chill: 83°   Ceiling: Unl
Heat Index: 87°   Visibility: 10mi
Dew Point: 70°   Wind: 14mph
Humidity: 65%   Direction: 90°E
Pressure: 29.95"   Gusts: 20mph
Location:  18.4125°N, 66.0374°W
Report Text: TJSJ 261956Z 09012G17KT 10SM SCT044 SCT060 28/21 A2995 RMK AO2 SLP142 T02830211
Loading
Personal Weather Stations






























Interactive Weather Map New forecast layout! Learn more

10-Day Weather Forecast

Advertisements
Track Severe Weather on mobile